This is the latest recevied weather packets stored in our database for station/object DL5DI-H. If no packets are shown the sender has not sent any weather packets the latest 10 day(s).
| Time | Temp. | Humidity | Pressure | Rain* | Wind** | Luminosity | Snow |
|---|---|---|---|---|---|---|---|
| 1777440605 | 6.11° C | 63% | 1024.2 hPa | 0 mm | - | - | - |
| 1777440001 | 6.11° C | 63% | 1024.2 hPa | 0 mm | - | - | - |
| 1777439405 | 6.11° C | 63% | 1024.2 hPa | 0 mm | - | - | - |
| 1777438805 | 6.11° C | 63% | 1024.2 hPa | 0 mm | - | - | - |
| 1777438201 | 6.11° C | 63% | 1024.1 hPa | 0 mm | - | - | - |
| 1777437605 | 6.67° C | 62% | 1024 hPa | 0 mm | - | - | - |
| 1777437001 | 6.67° C | 61% | 1023.9 hPa | 0 mm | - | - | - |
| 1777435805 | 7.22° C | 60% | 1024 hPa | 0 mm | - | - | - |
| 1777429201 | 9.44° C | 53% | 1023.3 hPa | 0 mm | - | - | - |
| 1777411205 | 15° C | 43% | 1022.2 hPa | 0 mm | - | - | - |
| 1777410605 | 15° C | 43% | 1022.2 hPa | 0 mm | - | - | - |
| 1777408201 | 15.56° C | 42% | 1022.1 hPa | 0 mm | - | - | - |
| 1777407600 | 16.11° C | 41% | 1022 hPa | 0 mm | - | - | - |
| 1777404605 | 18.33° C | 38% | 1020.7 hPa | 0 mm | - | - | - |
| 1777403405 | 18.33° C | 38% | 1020.7 hPa | 0 mm | - | - | - |
| 1777402805 | 18.33° C | 38% | 1020.7 hPa | 0 mm | - | - | - |
| 1777397401 | 23.89° C | 31% | 1019.5 hPa | 0 mm | - | - | - |
| 1777396201 | 23.89° C | 31% | 1019.5 hPa | 0 mm | - | - | - |
| 1777395605 | 23.89° C | 31% | 1019.5 hPa | 0 mm | - | - | - |
| 1777392605 | 24.44° C | 31% | 1019.2 hPa | 0 mm | - | - | - |
| 1777392001 | 24.44° C | 31% | 1019.2 hPa | 0 mm | - | - | - |
| 1777390201 | 23.89° C | 31% | 1019.4 hPa | 0 mm | - | - | - |
| 1777389605 | 23.89° C | 31% | 1019.4 hPa | 0 mm | - | - | - |
| 1777386005 | 24.44° C | 32% | 1019.5 hPa | 0 mm | - | - | - |
| 1777385401 | 23.89° C | 33% | 1019.5 hPa | 0 mm | - | - | - |
* Rain latest hour (hover to see other rain measurements)
** Current wind speed in m/s (hover to see current wind gust speed)